sensor_id;sensor_type;location;lat;lon;timestamp;pressure;altitude;pressure_sealevel;temperature
77412;BMP280;66484;49.968;19.140;2023-12-07T00:01:19;97787.31;;;-1.07
77412;BMP280;66484;49.968;19.140;2023-12-07T00:03:45;97789.84;;;-0.93
77412;BMP280;66484;49.968;19.140;2023-12-07T00:06:10;97781.06;;;-0.80
77412;BMP280;66484;49.968;19.140;2023-12-07T00:08:36;97781.13;;;-0.87
77412;BMP280;66484;49.968;19.140;2023-12-07T00:11:01;97788.22;;;-0.77
77412;BMP280;66484;49.968;19.140;2023-12-07T00:13:27;97793.75;;;-0.64
77412;BMP280;66484;49.968;19.140;2023-12-07T00:15:53;97800.47;;;-0.60
77412;BMP280;66484;49.968;19.140;2023-12-07T00:18:18;97797.63;;;-0.83
77412;BMP280;66484;49.968;19.140;2023-12-07T00:20:44;97797.53;;;-0.69
77412;BMP280;66484;49.968;19.140;2023-12-07T00:23:10;97790.47;;;-0.79
77412;BMP280;66484;49.968;19.140;2023-12-07T00:25:36;97792.38;;;-0.83
77412;BMP280;66484;49.968;19.140;2023-12-07T00:28:08;97787.91;;;-0.86
77412;BMP280;66484;49.968;19.140;2023-12-07T00:30:33;97799.88;;;-0.78
77412;BMP280;66484;49.968;19.140;2023-12-07T00:33:00;97799.94;;;-0.85
77412;BMP280;66484;49.968;19.140;2023-12-07T00:35:26;97803.75;;;-0.93
77412;BMP280;66484;49.968;19.140;2023-12-07T00:37:55;97799.09;;;-0.75
77412;BMP280;66484;49.968;19.140;2023-12-07T00:40:21;97795.50;;;-0.95
77412;BMP280;66484;49.968;19.140;2023-12-07T00:42:47;97794.28;;;-0.83
77412;BMP280;66484;49.968;19.140;2023-12-07T00:45:13;97795.06;;;-0.90
77412;BMP280;66484;49.968;19.140;2023-12-07T00:47:39;97800.81;;;-1.02
77412;BMP280;66484;49.968;19.140;2023-12-07T00:50:05;97802.09;;;-0.76
77412;BMP280;66484;49.968;19.140;2023-12-07T00:52:32;97796.88;;;-0.80
77412;BMP280;66484;49.968;19.140;2023-12-07T00:54:58;97805.97;;;-0.88
77412;BMP280;66484;49.968;19.140;2023-12-07T00:57:26;97797.88;;;-0.27
77412;BMP280;66484;49.968;19.140;2023-12-07T00:59:54;97796.63;;;-0.15
77412;BMP280;66484;49.968;19.140;2023-12-07T01:02:20;97802.34;;;-0.20
77412;BMP280;66484;49.968;19.140;2023-12-07T01:04:45;97801.25;;;-0.23
77412;BMP280;66484;49.968;19.140;2023-12-07T01:07:12;97806.91;;;-0.24
77412;BMP280;66484;49.968;19.140;2023-12-07T01:09:38;97804.22;;;-0.21
77412;BMP280;66484;49.968;19.140;2023-12-07T01:12:04;97806.78;;;-0.51
77412;BMP280;66484;49.968;19.140;2023-12-07T01:14:29;97813.41;;;-0.79
77412;BMP280;66484;49.968;19.140;2023-12-07T01:16:55;97813.97;;;-0.58
77412;BMP280;66484;49.968;19.140;2023-12-07T01:19:21;97810.00;;;-0.73
77412;BMP280;66484;49.968;19.140;2023-12-07T01:21:46;97812.84;;;-0.57
77412;BMP280;66484;49.968;19.140;2023-12-07T01:24:12;97809.66;;;-0.82
77412;BMP280;66484;49.968;19.140;2023-12-07T01:26:46;97806.31;;;-0.82
77412;BMP280;66484;49.968;19.140;2023-12-07T01:29:12;97804.72;;;-0.73
77412;BMP280;66484;49.968;19.140;2023-12-07T01:31:39;97803.63;;;-0.79
77412;BMP280;66484;49.968;19.140;2023-12-07T01:34:05;97807.50;;;-0.94
77412;BMP280;66484;49.968;19.140;2023-12-07T01:36:31;97805.16;;;-0.81
77412;BMP280;66484;49.968;19.140;2023-12-07T01:38:59;97801.72;;;-0.75
77412;BMP280;66484;49.968;19.140;2023-12-07T01:41:25;97811.13;;;-0.77
77412;BMP280;66484;49.968;19.140;2023-12-07T01:43:50;97811.78;;;-0.66
77412;BMP280;66484;49.968;19.140;2023-12-07T01:46:16;97809.38;;;-0.91
77412;BMP280;66484;49.968;19.140;2023-12-07T01:48:42;97810.66;;;-0.65
77412;BMP280;66484;49.968;19.140;2023-12-07T01:51:10;97811.41;;;-0.65
77412;BMP280;66484;49.968;19.140;2023-12-07T01:53:38;97808.47;;;-0.74
77412;BMP280;66484;49.968;19.140;2023-12-07T01:56:04;97808.03;;;-0.65
77412;BMP280;66484;49.968;19.140;2023-12-07T01:58:32;97808.50;;;-0.77
77412;BMP280;66484;49.968;19.140;2023-12-07T02:00:58;97808.06;;;-0.69
77412;BMP280;66484;49.968;19.140;2023-12-07T02:03:23;97809.88;;;-0.59
77412;BMP280;66484;49.968;19.140;2023-12-07T02:05:51;97809.38;;;-0.47
77412;BMP280;66484;49.968;19.140;2023-12-07T02:08:16;97809.63;;;-0.75
77412;BMP280;66484;49.968;19.140;2023-12-07T02:10:45;97812.50;;;-0.59
77412;BMP280;66484;49.968;19.140;2023-12-07T02:13:11;97811.56;;;-0.86
77412;BMP280;66484;49.968;19.140;2023-12-07T02:15:37;97818.16;;;-0.64
77412;BMP280;66484;49.968;19.140;2023-12-07T02:20:41;97814.31;;;-1.00
77412;BMP280;66484;49.968;19.140;2023-12-07T02:23:11;97821.75;;;-0.88
77412;BMP280;66484;49.968;19.140;2023-12-07T02:25:50;97821.03;;;-0.92
77412;BMP280;66484;49.968;19.140;2023-12-07T02:28:16;97819.63;;;-1.07
77412;BMP280;66484;49.968;19.140;2023-12-07T02:30:42;97827.94;;;-1.15
77412;BMP280;66484;49.968;19.140;2023-12-07T02:33:08;97826.06;;;-1.14
77412;BMP280;66484;49.968;19.140;2023-12-07T02:35:36;97827.56;;;-1.13
77412;BMP280;66484;49.968;19.140;2023-12-07T02:38:02;97832.06;;;-1.10
77412;BMP280;66484;49.968;19.140;2023-12-07T02:40:29;97820.41;;;-1.09
77412;BMP280;66484;49.968;19.140;2023-12-07T02:42:56;97828.25;;;-1.03
77412;BMP280;66484;49.968;19.140;2023-12-07T02:45:23;97831.47;;;-0.81
77412;BMP280;66484;49.968;19.140;2023-12-07T02:47:49;97839.16;;;-1.04
77412;BMP280;66484;49.968;19.140;2023-12-07T02:50:15;97838.28;;;-0.87
77412;BMP280;66484;49.968;19.140;2023-12-07T02:52:41;97840.31;;;-1.08
77412;BMP280;66484;49.968;19.140;2023-12-07T02:55:07;97841.31;;;-0.92
77412;BMP280;66484;49.968;19.140;2023-12-07T02:57:34;97842.91;;;-1.05
77412;BMP280;66484;49.968;19.140;2023-12-07T03:00:00;97851.91;;;-1.03
77412;BMP280;66484;49.968;19.140;2023-12-07T03:02:25;97845.97;;;-1.13
77412;BMP280;66484;49.968;19.140;2023-12-07T03:04:52;97847.78;;;-1.04
77412;BMP280;66484;49.968;19.140;2023-12-07T03:07:17;97851.03;;;-0.86
77412;BMP280;66484;49.968;19.140;2023-12-07T03:09:43;97859.44;;;-1.05
77412;BMP280;66484;49.968;19.140;2023-12-07T03:12:09;97862.41;;;-0.96
77412;BMP280;66484;49.968;19.140;2023-12-07T03:14:34;97857.13;;;-0.96
77412;BMP280;66484;49.968;19.140;2023-12-07T03:17:00;97867.50;;;-0.75
77412;BMP280;66484;49.968;19.140;2023-12-07T03:19:25;97861.50;;;-0.75
77412;BMP280;66484;49.968;19.140;2023-12-07T03:21:51;97866.94;;;-1.00
77412;BMP280;66484;49.968;19.140;2023-12-07T03:24:16;97859.53;;;-1.18
77412;BMP280;66484;49.968;19.140;2023-12-07T03:26:42;97856.25;;;-0.79
77412;BMP280;66484;49.968;19.140;2023-12-07T03:29:08;97856.78;;;-0.98
77412;BMP280;66484;49.968;19.140;2023-12-07T03:31:33;97855.41;;;-0.65
77412;BMP280;66484;49.968;19.140;2023-12-07T03:33:59;97852.50;;;-0.78
77412;BMP280;66484;49.968;19.140;2023-12-07T03:36:28;97853.22;;;-0.74
77412;BMP280;66484;49.968;19.140;2023-12-07T03:38:54;97859.91;;;-0.62
77412;BMP280;66484;49.968;19.140;2023-12-07T03:41:19;97860.34;;;-0.71
77412;BMP280;66484;49.968;19.140;2023-12-07T03:43:45;97860.00;;;-0.73
77412;BMP280;66484;49.968;19.140;2023-12-07T03:46:11;97860.72;;;-0.72
77412;BMP280;66484;49.968;19.140;2023-12-07T03:48:36;97866.78;;;-0.75
77412;BMP280;66484;49.968;19.140;2023-12-07T03:51:02;97877.97;;;-0.68
77412;BMP280;66484;49.968;19.140;2023-12-07T03:53:28;97870.44;;;-0.62
77412;BMP280;66484;49.968;19.140;2023-12-07T03:55:55;97868.84;;;-0.53
77412;BMP280;66484;49.968;19.140;2023-12-07T03:58:21;97873.81;;;-0.18
77412;BMP280;66484;49.968;19.140;2023-12-07T04:00:47;97878.19;;;-0.05
77412;BMP280;66484;49.968;19.140;2023-12-07T04:03:13;97874.59;;;-0.21
77412;BMP280;66484;49.968;19.140;2023-12-07T04:05:40;97865.19;;;-0.22
77412;BMP280;66484;49.968;19.140;2023-12-07T04:08:06;97875.84;;;-0.36
77412;BMP280;66484;49.968;19.140;2023-12-07T04:10:33;97872.81;;;-0.35
77412;BMP280;66484;49.968;19.140;2023-12-07T04:13:00;97876.91;;;-0.27
77412;BMP280;66484;49.968;19.140;2023-12-07T04:15:26;97879.47;;;-0.20
77412;BMP280;66484;49.968;19.140;2023-12-07T04:17:52;97884.44;;;-0.29
77412;BMP280;66484;49.968;19.140;2023-12-07T04:20:19;97885.19;;;-0.28
77412;BMP280;66484;49.968;19.140;2023-12-07T04:22:45;97893.63;;;-0.03
77412;BMP280;66484;49.968;19.140;2023-12-07T04:25:11;97885.19;;;-0.28
77412;BMP280;66484;49.968;19.140;2023-12-07T04:27:37;97892.09;;;-0.41
77412;BMP280;66484;49.968;19.140;2023-12-07T04:30:03;97894.94;;;-0.25
77412;BMP280;66484;49.968;19.140;2023-12-07T04:32:29;97895.91;;;-0.49
77412;BMP280;66484;49.968;19.140;2023-12-07T04:34:55;97892.81;;;-0.41
77412;BMP280;66484;49.968;19.140;2023-12-07T04:37:21;97892.41;;;0.04
77412;BMP280;66484;49.968;19.140;2023-12-07T04:39:47;97891.78;;;-0.10
77412;BMP280;66484;49.968;19.140;2023-12-07T04:42:15;97892.56;;;-0.09
77412;BMP280;66484;49.968;19.140;2023-12-07T04:44:40;97894.34;;;0.00
77412;BMP280;66484;49.968;19.140;2023-12-07T04:47:06;97894.75;;;-0.04
77412;BMP280;66484;49.968;19.140;2023-12-07T04:49:31;97895.94;;;-0.12
77412;BMP280;66484;49.968;19.140;2023-12-07T04:51:57;97894.34;;;-0.43
77412;BMP280;66484;49.968;19.140;2023-12-07T04:54:22;97895.47;;;-0.44
77412;BMP280;66484;49.968;19.140;2023-12-07T04:56:48;97914.78;;;-0.57
77412;BMP280;66484;49.968;19.140;2023-12-07T04:59:13;97906.50;;;-0.59
77412;BMP280;66484;49.968;19.140;2023-12-07T05:01:39;97909.59;;;-0.71
77412;BMP280;66484;49.968;19.140;2023-12-07T05:04:05;97911.50;;;-0.79
77412;BMP280;66484;49.968;19.140;2023-12-07T05:06:31;97923.84;;;-0.65
77412;BMP280;66484;49.968;19.140;2023-12-07T05:08:57;97922.03;;;-0.79
77412;BMP280;66484;49.968;19.140;2023-12-07T05:11:22;97918.34;;;-0.85
77412;BMP280;66484;49.968;19.140;2023-12-07T05:13:48;97927.00;;;-0.88
77412;BMP280;66484;49.968;19.140;2023-12-07T05:16:14;97924.97;;;-0.63
77412;BMP280;66484;49.968;19.140;2023-12-07T05:18:42;97927.66;;;-0.73
77412;BMP280;66484;49.968;19.140;2023-12-07T05:21:09;97926.13;;;-0.71
77412;BMP280;66484;49.968;19.140;2023-12-07T05:23:35;97940.47;;;-0.75
77412;BMP280;66484;49.968;19.140;2023-12-07T05:26:35;97944.66;;;-0.88
77412;BMP280;66484;49.968;19.140;2023-12-07T05:29:01;97949.50;;;-0.83
77412;BMP280;66484;49.968;19.140;2023-12-07T05:31:27;97949.38;;;-0.59
77412;BMP280;66484;49.968;19.140;2023-12-07T05:37:38;97950.47;;;-0.56
77412;BMP280;66484;49.968;19.140;2023-12-07T05:40:04;97953.19;;;-0.67
77412;BMP280;66484;49.968;19.140;2023-12-07T05:46:11;97949.44;;;-0.69
77412;BMP280;66484;49.968;19.140;2023-12-07T05:48:46;97955.50;;;-0.83
77412;BMP280;66484;49.968;19.140;2023-12-07T05:51:18;97958.00;;;-0.58
77412;BMP280;66484;49.968;19.140;2023-12-07T05:54:17;97960.34;;;-0.71
77412;BMP280;66484;49.968;19.140;2023-12-07T05:56:45;97967.84;;;-0.66
77412;BMP280;66484;49.968;19.140;2023-12-07T05:59:17;97973.28;;;-0.36
77412;BMP280;66484;49.968;19.140;2023-12-07T06:01:42;97966.09;;;-0.90
77412;BMP280;66484;49.968;19.140;2023-12-07T06:04:09;97972.13;;;-0.93
77412;BMP280;66484;49.968;19.140;2023-12-07T06:06:49;97980.38;;;-0.91
77412;BMP280;66484;49.968;19.140;2023-12-07T06:09:15;97979.53;;;-0.74
77412;BMP280;66484;49.968;19.140;2023-12-07T06:29:20;98002.94;;;-0.93
77412;BMP280;66484;49.968;19.140;2023-12-07T06:31:46;98006.25;;;-0.79
77412;BMP280;66484;49.968;19.140;2023-12-07T06:34:11;98004.97;;;-0.50
77412;BMP280;66484;49.968;19.140;2023-12-07T06:36:37;98003.50;;;-0.58
77412;BMP280;66484;49.968;19.140;2023-12-07T06:39:03;98009.22;;;-0.70
77412;BMP280;66484;49.968;19.140;2023-12-07T06:41:28;98018.28;;;-0.78
77412;BMP280;66484;49.968;19.140;2023-12-07T06:43:54;98013.06;;;-0.88
77412;BMP280;66484;49.968;19.140;2023-12-07T06:46:20;98020.88;;;-0.71
77412;BMP280;66484;49.968;19.140;2023-12-07T06:48:46;98026.53;;;-0.76
77412;BMP280;66484;49.968;19.140;2023-12-07T06:51:27;98026.94;;;-0.81
77412;BMP280;66484;49.968;19.140;2023-12-07T06:53:52;98027.34;;;-0.86
77412;BMP280;66484;49.968;19.140;2023-12-07T06:56:18;98026.91;;;-0.77
77412;BMP280;66484;49.968;19.140;2023-12-07T06:58:44;98024.56;;;-0.54
77412;BMP280;66484;49.968;19.140;2023-12-07T07:01:09;98026.41;;;-0.52
77412;BMP280;66484;49.968;19.140;2023-12-07T07:03:43;98027.66;;;-0.73
77412;BMP280;66484;49.968;19.140;2023-12-07T07:06:09;98023.91;;;-0.76
77412;BMP280;66484;49.968;19.140;2023-12-07T07:08:34;98038.53;;;-0.68
77412;BMP280;66484;49.968;19.140;2023-12-07T07:11:12;98034.41;;;-0.76
77412;BMP280;66484;49.968;19.140;2023-12-07T07:13:39;98046.34;;;-0.54
77412;BMP280;66484;49.968;19.140;2023-12-07T07:16:05;98035.06;;;-0.51
77412;BMP280;66484;49.968;19.140;2023-12-07T07:18:31;98036.91;;;-0.41
77412;BMP280;66484;49.968;19.140;2023-12-07T07:20:57;98041.31;;;-0.28
77412;BMP280;66484;49.968;19.140;2023-12-07T07:23:24;98038.56;;;-0.10
77412;BMP280;66484;49.968;19.140;2023-12-07T07:25:50;98046.97;;;-0.29
77412;BMP280;66484;49.968;19.140;2023-12-07T07:28:20;98039.88;;;-0.39
77412;BMP280;66484;49.968;19.140;2023-12-07T07:30:45;98053.38;;;-0.30
77412;BMP280;66484;49.968;19.140;2023-12-07T07:33:11;98046.91;;;-0.22
77412;BMP280;66484;49.968;19.140;2023-12-07T07:35:37;98051.41;;;-0.19
77412;BMP280;66484;49.968;19.140;2023-12-07T07:38:03;98056.72;;;-0.23
77412;BMP280;66484;49.968;19.140;2023-12-07T07:40:31;98056.28;;;-0.14
77412;BMP280;66484;49.968;19.140;2023-12-07T07:42:56;98060.91;;;-0.29
77412;BMP280;66484;49.968;19.140;2023-12-07T07:45:44;98065.78;;;-0.27
77412;BMP280;66484;49.968;19.140;2023-12-07T07:48:11;98060.38;;;-0.06
77412;BMP280;66484;49.968;19.140;2023-12-07T07:50:37;98064.97;;;-0.21
77412;BMP280;66484;49.968;19.140;2023-12-07T07:53:12;98068.63;;;-0.04
77412;BMP280;66484;49.968;19.140;2023-12-07T07:55:38;98064.19;;;-0.14
77412;BMP280;66484;49.968;19.140;2023-12-07T07:58:03;98064.03;;;0.06
77412;BMP280;66484;49.968;19.140;2023-12-07T08:03:25;98074.22;;;0.04
77412;BMP280;66484;49.968;19.140;2023-12-07T08:05:51;98074.41;;;0.27
77412;BMP280;66484;49.968;19.140;2023-12-07T08:08:29;98074.41;;;0.27
77412;BMP280;66484;49.968;19.140;2023-12-07T08:10:55;98068.41;;;0.27
77412;BMP280;66484;49.968;19.140;2023-12-07T08:13:28;98070.34;;;0.19
77412;BMP280;66484;49.968;19.140;2023-12-07T08:15:53;98070.16;;;0.44
77412;BMP280;66484;49.968;19.140;2023-12-07T08:21:38;98068.03;;;0.68
77412;BMP280;66484;49.968;19.140;2023-12-07T08:24:19;98066.56;;;0.64
77412;BMP280;66484;49.968;19.140;2023-12-07T08:26:45;98078.06;;;0.44
77412;BMP280;66484;49.968;19.140;2023-12-07T08:29:11;98092.69;;;0.48
77412;BMP280;66484;49.968;19.140;2023-12-07T08:31:37;98087.75;;;0.57
77412;BMP280;66484;49.968;19.140;2023-12-07T08:34:02;98093.38;;;0.59
77412;BMP280;66484;49.968;19.140;2023-12-07T08:36:28;98084.88;;;0.81
77412;BMP280;66484;49.968;19.140;2023-12-07T08:38:54;98096.38;;;1.01
77412;BMP280;66484;49.968;19.140;2023-12-07T08:41:20;98100.59;;;0.92
77412;BMP280;66484;49.968;19.140;2023-12-07T08:43:46;98102.53;;;0.88
77412;BMP280;66484;49.968;19.140;2023-12-07T08:46:11;98098.06;;;0.81
77412;BMP280;66484;49.968;19.140;2023-12-07T08:48:37;98102.78;;;0.60
77412;BMP280;66484;49.968;19.140;2023-12-07T08:51:05;98097.97;;;0.92
77412;BMP280;66484;49.968;19.140;2023-12-07T08:53:30;98097.63;;;0.90
77412;BMP280;66484;49.968;19.140;2023-12-07T08:55:56;98104.66;;;1.00
77412;BMP280;66484;49.968;19.140;2023-12-07T08:58:22;98108.66;;;0.78
77412;BMP280;66484;49.968;19.140;2023-12-07T09:00:48;98107.06;;;0.84
77412;BMP280;66484;49.968;19.140;2023-12-07T09:03:14;98115.25;;;0.96
77412;BMP280;66484;49.968;19.140;2023-12-07T09:05:39;98118.50;;;1.10
77412;BMP280;66484;49.968;19.140;2023-12-07T09:08:05;98116.94;;;1.16
77412;BMP280;66484;49.968;19.140;2023-12-07T09:10:32;98113.94;;;1.14
77412;BMP280;66484;49.968;19.140;2023-12-07T09:12:57;98116.06;;;1.26
77412;BMP280;66484;49.968;19.140;2023-12-07T09:15:23;98118.88;;;1.46
77412;BMP280;66484;49.968;19.140;2023-12-07T09:17:48;98111.94;;;1.25
77412;BMP280;66484;49.968;19.140;2023-12-07T09:20:14;98118.41;;;1.54
77412;BMP280;66484;49.968;19.140;2023-12-07T09:22:47;98113.50;;;1.19
77412;BMP280;66484;49.968;19.140;2023-12-07T09:25:15;98113.31;;;1.37
77412;BMP280;66484;49.968;19.140;2023-12-07T09:27:41;98114.47;;;1.36
77412;BMP280;66484;49.968;19.140;2023-12-07T09:30:08;98115.81;;;1.17
77412;BMP280;66484;49.968;19.140;2023-12-07T09:32:40;98115.56;;;1.38
77412;BMP280;66484;49.968;19.140;2023-12-07T09:35:06;98112.16;;;1.71
77412;BMP280;66484;49.968;19.140;2023-12-07T09:37:33;98113.59;;;1.46
77412;BMP280;66484;49.968;19.140;2023-12-07T09:39:59;98113.72;;;1.35
77412;BMP280;66484;49.968;19.140;2023-12-07T09:42:24;98112.75;;;1.22
77412;BMP280;66484;49.968;19.140;2023-12-07T09:44:50;98115.66;;;1.28
77412;BMP280;66484;49.968;19.140;2023-12-07T09:47:16;98112.91;;;1.42
77412;BMP280;66484;49.968;19.140;2023-12-07T09:49:41;98107.59;;;1.75
77412;BMP280;66484;49.968;19.140;2023-12-07T09:52:08;98108.28;;;1.79
77412;BMP280;66484;49.968;19.140;2023-12-07T09:54:34;98111.34;;;1.74
77412;BMP280;66484;49.968;19.140;2023-12-07T09:57:01;98107.91;;;1.77
77412;BMP280;66484;49.968;19.140;2023-12-07T09:59:26;98104.13;;;1.78
77412;BMP280;66484;49.968;19.140;2023-12-07T10:01:52;98102.63;;;1.77
77412;BMP280;66484;49.968;19.140;2023-12-07T10:04:20;98103.69;;;1.83
77412;BMP280;66484;49.968;19.140;2023-12-07T10:06:47;98108.28;;;1.79
77412;BMP280;66484;49.968;19.140;2023-12-07T10:09:14;98096.94;;;1.78
77412;BMP280;66484;49.968;19.140;2023-12-07T10:11:41;98104.28;;;1.94
77412;BMP280;66484;49.968;19.140;2023-12-07T10:14:07;98099.91;;;1.84
77412;BMP280;66484;49.968;19.140;2023-12-07T10:16:33;98104.56;;;2.03
77412;BMP280;66484;49.968;19.140;2023-12-07T10:19:16;98096.22;;;1.78
77412;BMP280;66484;49.968;19.140;2023-12-07T10:21:50;98094.22;;;1.85
77412;BMP280;66484;49.968;19.140;2023-12-07T10:24:16;98091.44;;;1.96
77412;BMP280;66484;49.968;19.140;2023-12-07T10:26:43;98098.75;;;1.55
77412;BMP280;66484;49.968;19.140;2023-12-07T10:29:10;98097.16;;;1.91
77412;BMP280;66484;49.968;19.140;2023-12-07T10:31:38;98098.63;;;2.21
77412;BMP280;66484;49.968;19.140;2023-12-07T10:34:07;98093.28;;;1.99
77412;BMP280;66484;49.968;19.140;2023-12-07T10:36:34;98097.66;;;1.82
77412;BMP280;66484;49.968;19.140;2023-12-07T10:38:59;98095.75;;;1.83
77412;BMP280;66484;49.968;19.140;2023-12-07T10:41:25;98098.66;;;1.92
77412;BMP280;66484;49.968;19.140;2023-12-07T10:46:20;98081.69;;;2.15
77412;BMP280;66484;49.968;19.140;2023-12-07T10:48:47;98094.31;;;2.31
77412;BMP280;66484;49.968;19.140;2023-12-07T10:54:37;98091.75;;;2.24
77412;BMP280;66484;49.968;19.140;2023-12-07T10:57:05;98094.00;;;2.25
77412;BMP280;66484;49.968;19.140;2023-12-07T10:59:33;98087.25;;;2.24
77412;BMP280;66484;49.968;19.140;2023-12-07T11:02:01;98091.72;;;2.27
77412;BMP280;66484;49.968;19.140;2023-12-07T11:04:30;98093.44;;;2.14
77412;BMP280;66484;49.968;19.140;2023-12-07T11:07:02;98094.72;;;1.77
77412;BMP280;66484;49.968;19.140;2023-12-07T11:09:34;98093.31;;;1.95
77412;BMP280;66484;49.968;19.140;2023-12-07T11:12:08;98088.91;;;1.59
77412;BMP280;66484;49.968;19.140;2023-12-07T11:14:37;98095.09;;;2.05
77412;BMP280;66484;49.968;19.140;2023-12-07T11:17:04;98092.38;;;1.82
77412;BMP280;66484;49.968;19.140;2023-12-07T11:22:02;98095.13;;;2.02
77412;BMP280;66484;49.968;19.140;2023-12-07T11:24:28;98095.72;;;1.86
77412;BMP280;66484;49.968;19.140;2023-12-07T11:26:58;98095.31;;;1.88
77412;BMP280;66484;49.968;19.140;2023-12-07T11:29:25;98097.97;;;1.88
77412;BMP280;66484;49.968;19.140;2023-12-07T11:32:04;98096.31;;;2.23
77412;BMP280;66484;49.968;19.140;2023-12-07T11:34:43;98092.69;;;1.88
77412;BMP280;66484;49.968;19.140;2023-12-07T11:37:10;98094.03;;;1.99
77412;BMP280;66484;49.968;19.140;2023-12-07T11:39:40;98097.31;;;2.07
77412;BMP280;66484;49.968;19.140;2023-12-07T11:42:17;98095.91;;;2.25
77412;BMP280;66484;49.968;19.140;2023-12-07T11:44:56;98096.28;;;2.27
77412;BMP280;66484;49.968;19.140;2023-12-07T11:47:22;98098.53;;;2.28
77412;BMP280;66484;49.968;19.140;2023-12-07T11:49:49;98088.00;;;1.99
77412;BMP280;66484;49.968;19.140;2023-12-07T11:52:15;98102.44;;;2.17
77412;BMP280;66484;49.968;19.140;2023-12-07T11:54:43;98101.44;;;2.08
77412;BMP280;66484;49.968;19.140;2023-12-07T11:57:10;98100.16;;;2.19
77412;BMP280;66484;49.968;19.140;2023-12-07T11:59:35;98103.34;;;1.81
77412;BMP280;66484;49.968;19.140;2023-12-07T12:02:02;98106.25;;;1.90
77412;BMP280;66484;49.968;19.140;2023-12-07T12:04:29;98095.28;;;1.91
77412;BMP280;66484;49.968;19.140;2023-12-07T12:06:54;98091.53;;;1.89
77412;BMP280;66484;49.968;19.140;2023-12-07T12:09:20;98095.81;;;2.32
77412;BMP280;66484;49.968;19.140;2023-12-07T12:11:47;98096.72;;;1.96
77412;BMP280;66484;49.968;19.140;2023-12-07T12:14:14;98092.44;;;1.79
77412;BMP280;66484;49.968;19.140;2023-12-07T12:16:42;98100.88;;;2.23
77412;BMP280;66484;49.968;19.140;2023-12-07T12:19:08;98096.16;;;1.81
77412;BMP280;66484;49.968;19.140;2023-12-07T12:21:36;98089.94;;;1.65
77412;BMP280;66484;49.968;19.140;2023-12-07T12:24:05;98090.97;;;1.74
77412;BMP280;66484;49.968;19.140;2023-12-07T12:26:33;98092.44;;;1.79
77412;BMP280;66484;49.968;19.140;2023-12-07T12:28:59;98092.47;;;2.02
77412;BMP280;66484;49.968;19.140;2023-12-07T12:31:25;98086.69;;;2.10
77412;BMP280;66484;49.968;19.140;2023-12-07T12:33:50;98093.47;;;2.11
77412;BMP280;66484;49.968;19.140;2023-12-07T12:36:18;98094.19;;;2.15
77412;BMP280;66484;49.968;19.140;2023-12-07T12:38:48;98097.94;;;1.91
77412;BMP280;66484;49.968;19.140;2023-12-07T12:41:21;98097.97;;;1.58
77412;BMP280;66484;49.968;19.140;2023-12-07T12:43:47;98105.66;;;1.79
77412;BMP280;66484;49.968;19.140;2023-12-07T12:46:15;98114.72;;;2.04
77412;BMP280;66484;49.968;19.140;2023-12-07T12:48:58;98119.00;;;1.65
77412;BMP280;66484;49.968;19.140;2023-12-07T12:51:26;98112.28;;;1.90
77412;BMP280;66484;49.968;19.140;2023-12-07T12:53:53;98109.16;;;1.69
77412;BMP280;66484;49.968;19.140;2023-12-07T12:56:21;98114.66;;;1.52
77412;BMP280;66484;49.968;19.140;2023-12-07T12:58:50;98107.66;;;1.68
77412;BMP280;66484;49.968;19.140;2023-12-07T13:01:17;98113.38;;;1.93
77412;BMP280;66484;49.968;19.140;2023-12-07T13:03:49;98109.94;;;1.66
77412;BMP280;66484;49.968;19.140;2023-12-07T13:06:16;98114.81;;;1.71
77412;BMP280;66484;49.968;19.140;2023-12-07T13:08:45;98114.44;;;1.69
77412;BMP280;66484;49.968;19.140;2023-12-07T13:11:15;98120.16;;;1.64
77412;BMP280;66484;49.968;19.140;2023-12-07T13:13:41;98110.03;;;1.89
77412;BMP280;66484;49.968;19.140;2023-12-07T13:16:07;98128.09;;;1.64
77412;BMP280;66484;49.968;19.140;2023-12-07T13:18:39;98118.84;;;1.79
77412;BMP280;66484;49.968;19.140;2023-12-07T13:21:06;98119.25;;;1.44
77412;BMP280;66484;49.968;19.140;2023-12-07T13:23:32;98115.72;;;1.87
77412;BMP280;66484;49.968;19.140;2023-12-07T13:25:57;98121.97;;;1.70
77412;BMP280;66484;49.968;19.140;2023-12-07T13:28:23;98120.34;;;1.80
77412;BMP280;66484;49.968;19.140;2023-12-07T13:30:49;98127.00;;;1.58
77412;BMP280;66484;49.968;19.140;2023-12-07T13:33:18;98133.63;;;1.43
77412;BMP280;66484;49.968;19.140;2023-12-07T13:35:44;98129.63;;;1.28
77412;BMP280;66484;49.968;19.140;2023-12-07T13:38:10;98134.84;;;1.65
77412;BMP280;66484;49.968;19.140;2023-12-07T13:40:36;98120.78;;;1.75
77412;BMP280;66484;49.968;19.140;2023-12-07T13:43:03;98121.00;;;1.87
77412;BMP280;66484;49.968;19.140;2023-12-07T13:45:28;98119.59;;;1.79
77412;BMP280;66484;49.968;19.140;2023-12-07T13:47:54;98133.81;;;1.89
77412;BMP280;66484;49.968;19.140;2023-12-07T13:50:20;98141.97;;;1.71
77412;BMP280;66484;49.968;19.140;2023-12-07T13:52:48;98139.66;;;1.40
77412;BMP280;66484;49.968;19.140;2023-12-07T13:55:13;98141.56;;;1.43
77412;BMP280;66484;49.968;19.140;2023-12-07T13:57:40;98148.00;;;1.39
77412;BMP280;66484;49.968;19.140;2023-12-07T14:00:06;98148.13;;;1.28
77412;BMP280;66484;49.968;19.140;2023-12-07T14:02:32;98148.97;;;1.18
77412;BMP280;66484;49.968;19.140;2023-12-07T14:04:58;98152.75;;;1.17
77412;BMP280;66484;49.968;19.140;2023-12-07T14:07:24;98150.69;;;1.35
77412;BMP280;66484;49.968;19.140;2023-12-07T14:09:51;98153.91;;;1.50
77412;BMP280;66484;49.968;19.140;2023-12-07T14:15:41;98160.78;;;1.40
77412;BMP280;66484;49.968;19.140;2023-12-07T14:18:10;98158.63;;;1.32
77412;BMP280;66484;49.968;19.140;2023-12-07T14:20:40;98173.34;;;1.33
77412;BMP280;66484;49.968;19.140;2023-12-07T14:23:27;98173.63;;;1.42
77412;BMP280;66484;49.968;19.140;2023-12-07T14:25:53;98164.44;;;1.53
77412;BMP280;66484;49.968;19.140;2023-12-07T14:28:24;98168.03;;;1.36
77412;BMP280;66484;49.968;19.140;2023-12-07T14:30:55;98167.72;;;1.31
77412;BMP280;66484;49.968;19.140;2023-12-07T14:33:24;98170.78;;;1.26
77412;BMP280;66484;49.968;19.140;2023-12-07T14:35:54;98166.06;;;1.40
77412;BMP280;66484;49.968;19.140;2023-12-07T14:38:21;98178.00;;;1.55
77412;BMP280;66484;49.968;19.140;2023-12-07T14:40:47;98171.56;;;1.56
77412;BMP280;66484;49.968;19.140;2023-12-07T14:43:18;98187.75;;;1.61
77412;BMP280;66484;49.968;19.140;2023-12-07T14:45:45;98183.44;;;1.41
77412;BMP280;66484;49.968;19.140;2023-12-07T14:48:11;98185.59;;;1.50